createdAt,value
2023-01-11T00:01:09.132Z,99709.09
2023-01-11T00:03:36.403Z,99713.34
2023-01-11T00:06:03.604Z,99717.63
2023-01-11T00:08:31.651Z,99714.34
2023-01-11T00:10:58.699Z,99702.69
2023-01-11T00:13:25.771Z,99701.38
2023-01-11T00:15:52.884Z,99699.22
2023-01-11T00:18:20.235Z,99705.91
2023-01-11T00:20:47.296Z,99697.25
2023-01-11T00:23:14.526Z,99692.41
2023-01-11T00:25:41.541Z,99690.72
2023-01-11T00:28:09.283Z,99693.81
2023-01-11T00:30:36.287Z,99699.94
2023-01-11T00:33:03.446Z,99694.13
2023-01-11T00:35:31.195Z,99682.31
2023-01-11T00:37:58.356Z,99682.16
2023-01-11T00:40:25.509Z,99675.59
2023-01-11T00:42:52.518Z,99667.03
2023-01-11T00:45:19.663Z,99666.19
2023-01-11T00:47:46.711Z,99652.09
2023-01-11T00:50:13.742Z,99647.25
2023-01-11T00:52:40.780Z,99641.53
2023-01-11T00:55:08.308Z,99647.94
2023-01-11T00:57:35.478Z,99649.97
2023-01-11T01:00:02.608Z,99643.28
2023-01-11T01:02:32.007Z,99648.41
2023-01-11T01:04:59.151Z,99642.16
2023-01-11T01:07:26.279Z,99655.66
2023-01-11T01:09:53.343Z,99643.69
2023-01-11T01:12:20.399Z,99650.66
2023-01-11T01:14:47.427Z,99652.34
2023-01-11T01:17:14.449Z,99643.84
2023-01-11T01:19:41.483Z,99645.25
2023-01-11T01:22:08.553Z,99645.09
2023-01-11T01:24:35.904Z,99639.13
2023-01-11T01:27:03.058Z,99642.66
2023-01-11T01:29:30.029Z,99646.22
2023-01-11T01:31:57.118Z,99646.75
2023-01-11T01:34:24.149Z,99637.34
2023-01-11T01:36:51.234Z,99644.44
2023-01-11T01:39:18.256Z,99644.31
2023-01-11T01:41:45.246Z,99645.41
2023-01-11T01:44:49.344Z,99639.47
2023-01-11T01:47:17.032Z,99628.31
2023-01-11T01:49:45.198Z,99634.59
2023-01-11T01:52:12.785Z,99637.44
2023-01-11T01:54:45.545Z,99637.97
2023-01-11T01:57:19.221Z,99629.72
2023-01-11T01:59:49.614Z,99642.09
2023-01-11T02:02:17.008Z,99640.25
2023-01-11T02:04:46.638Z,99631.28
2023-01-11T02:07:17.994Z,99637.41
2023-01-11T02:10:00.729Z,99630.97
2023-01-11T02:12:31.370Z,99619.47
2023-01-11T02:15:00.741Z,99619.28
2023-01-11T02:17:27.814Z,99619.84
2023-01-11T02:20:36.822Z,99619.84
2023-01-11T02:23:17.943Z,99612.75
2023-01-11T02:26:22.363Z,99617.84
2023-01-11T02:29:10.517Z,99620.38
2023-01-11T02:32:07.570Z,99608.56
2023-01-11T02:42:00.685Z,99595.59
2023-01-11T02:44:36.557Z,99592.25
2023-01-11T02:47:09.058Z,99588.28
2023-01-11T02:50:03.180Z,99580.34
2023-01-11T02:52:41.961Z,99568.50
2023-01-11T02:55:13.308Z,99567.94
2023-01-11T02:57:42.807Z,99573.78
2023-01-11T03:00:11.938Z,99571.91
2023-01-11T03:02:39.051Z,99562.09
2023-01-11T03:05:14.403Z,99561.84
2023-01-11T03:07:41.407Z,99557.84
2023-01-11T03:10:29.537Z,99564.94
2023-01-11T03:13:10.894Z,99552.41
2023-01-11T03:15:47.111Z,99555.13
2023-01-11T03:18:41.904Z,99553.66
2023-01-11T03:21:24.121Z,99545.84
2023-01-11T03:24:29.597Z,99542.69
2023-01-11T03:27:13.494Z,99537.28
2023-01-11T03:29:58.507Z,99530.75
2023-01-11T03:32:46.317Z,99532.16
2023-01-11T03:35:13.266Z,99526.25
2023-01-11T03:37:56.061Z,99520.00
2023-01-11T03:40:34.687Z,99516.59
2023-01-11T03:43:06.992Z,99514.44
2023-01-11T03:45:37.801Z,99517.47
2023-01-11T03:48:09.626Z,99519.84
2023-01-11T03:50:36.600Z,99512.28
2023-01-11T03:53:06.989Z,99519.38
2023-01-11T03:55:39.097Z,99511.47
2023-01-11T03:58:06.864Z,99504.06
2023-01-11T04:00:34.016Z,99494.78
2023-01-11T04:03:01.167Z,99499.88
2023-01-11T04:05:29.004Z,99489.03
2023-01-11T04:07:56.166Z,99484.63
2023-01-11T04:10:23.276Z,99486.19
2023-01-11T04:12:51.482Z,99499.22
2023-01-11T04:15:18.534Z,99485.84
2023-01-11T04:17:45.633Z,99481.50
2023-01-11T04:20:12.897Z,99475.94
2023-01-11T04:22:39.951Z,99487.44
2023-01-11T04:25:07.459Z,99473.44
2023-01-11T04:27:34.622Z,99466.00
2023-01-11T04:30:01.776Z,99466.53
2023-01-11T04:32:28.957Z,99459.81
2023-01-11T04:34:56.216Z,99456.09
2023-01-11T04:37:23.347Z,99455.06
2023-01-11T04:39:50.474Z,99452.91
2023-01-11T04:42:17.496Z,99448.00
2023-01-11T04:44:49.786Z,99444.81
2023-01-11T04:47:18.502Z,99447.50
2023-01-11T04:49:45.564Z,99448.38
2023-01-11T04:52:14.744Z,99454.31
2023-01-11T04:54:42.284Z,99441.47
2023-01-11T04:57:12.915Z,99450.09
2023-01-11T04:59:40.088Z,99445.03
2023-01-11T05:02:07.225Z,99435.22
2023-01-11T05:04:34.402Z,99431.50
2023-01-11T05:07:01.462Z,99431.00
2023-01-11T05:09:29.003Z,99447.97
2023-01-11T05:11:56.075Z,99444.91
2023-01-11T05:14:23.943Z,99440.88
2023-01-11T05:16:51.282Z,99444.13
2023-01-11T05:19:18.667Z,99437.13
2023-01-11T05:21:45.716Z,99431.41
2023-01-11T05:24:14.826Z,99431.22
2023-01-11T05:26:44.246Z,99434.09
2023-01-11T05:29:14.800Z,99433.63
2023-01-11T05:31:41.908Z,99427.34
2023-01-11T05:34:13.027Z,99425.66
2023-01-11T05:36:40.252Z,99429.91
2023-01-11T05:39:08.001Z,99418.72
2023-01-11T05:41:35.428Z,99413.97
2023-01-11T05:44:02.548Z,99413.50
2023-01-11T05:46:30.973Z,99404.31
2023-01-11T05:48:58.417Z,99418.75
2023-01-11T05:51:26.819Z,99400.59
2023-01-11T05:53:53.855Z,99402.66
2023-01-11T05:56:20.905Z,99401.63
2023-01-11T05:58:49.604Z,99393.84
2023-01-11T06:01:18.544Z,99397.25
2023-01-11T06:03:46.361Z,99402.69
2023-01-11T06:06:14.556Z,99390.81
2023-01-11T06:16:30.292Z,99393.53
2023-01-11T06:18:57.343Z,99377.91
2023-01-11T06:21:36.437Z,99388.59
2023-01-11T06:24:03.585Z,99392.19
2023-01-11T06:26:30.669Z,99386.44
2023-01-11T06:28:57.744Z,99378.78
2023-01-11T06:31:24.896Z,99380.31
2023-01-11T06:33:51.952Z,99379.97
2023-01-11T06:36:19.017Z,99379.44
2023-01-11T06:38:46.107Z,99375.22
2023-01-11T06:41:13.310Z,99375.91
2023-01-11T06:43:41.797Z,99374.88
2023-01-11T06:46:16.068Z,99372.50
2023-01-11T06:48:44.229Z,99362.50
2023-01-11T06:51:12.372Z,99359.63
2023-01-11T06:53:40.874Z,99359.09
2023-01-11T06:56:10.857Z,99347.56
2023-01-11T06:58:38.432Z,99351.63
2023-01-11T07:01:06.292Z,99356.19
2023-01-11T07:03:33.555Z,99346.88
2023-01-11T07:06:01.261Z,99353.66
2023-01-11T07:08:28.515Z,99359.41
2023-01-11T07:10:55.537Z,99361.97
2023-01-11T07:13:23.123Z,99370.63
2023-01-11T07:15:51.117Z,99370.44
2023-01-11T07:18:19.382Z,99376.38
2023-01-11T07:20:46.800Z,99366.03
2023-01-11T07:23:14.258Z,99369.44
2023-01-11T07:25:41.346Z,99358.22
2023-01-11T07:28:09.607Z,99366.88
2023-01-11T07:30:56.206Z,99368.06
2023-01-11T07:33:25.249Z,99375.38
2023-01-11T07:35:52.370Z,99376.88
2023-01-11T07:38:19.555Z,99380.47
2023-01-11T07:40:46.773Z,99372.97
2023-01-11T07:43:14.501Z,99378.41
2023-01-11T07:45:52.681Z,99376.38
2023-01-11T07:48:22.542Z,99375.84
2023-01-11T07:50:49.587Z,99377.91
2023-01-11T07:53:16.779Z,99372.97
2023-01-11T07:55:43.842Z,99366.69
2023-01-11T07:58:12.496Z,99375.34
2023-01-11T08:00:40.123Z,99368.38
2023-01-11T08:03:07.924Z,99371.25
2023-01-11T08:05:35.776Z,99373.13
2023-01-11T08:08:03.008Z,99371.56
2023-01-11T08:10:30.160Z,99373.25
2023-01-11T08:12:57.534Z,99374.97
2023-01-11T08:15:24.574Z,99372.25
2023-01-11T08:17:51.653Z,99368.53
2023-01-11T08:20:18.758Z,99365.94
2023-01-11T08:22:45.753Z,99370.91
2023-01-11T08:25:12.823Z,99369.00
2023-01-11T08:27:40.735Z,99365.81
2023-01-11T08:30:08.613Z,99353.91
2023-01-11T08:32:35.721Z,99366.28
2023-01-11T08:35:02.908Z,99363.88
2023-01-11T08:37:29.963Z,99369.53
2023-01-11T08:39:57.042Z,99375.97
2023-01-11T08:42:24.370Z,99367.47
2023-01-11T08:44:51.382Z,99367.47
2023-01-11T08:47:18.406Z,99373.03
2023-01-11T08:49:45.463Z,99356.75
2023-01-11T08:52:13.399Z,99360.63
2023-01-11T08:54:41.567Z,99360.28
2023-01-11T08:57:08.802Z,99369.41
2023-01-11T08:59:36.348Z,99357.72
2023-01-11T09:02:05.768Z,99355.66
2023-01-11T09:04:33.154Z,99366.34
2023-01-11T09:07:01.484Z,99370.75
2023-01-11T09:09:28.530Z,99373.84
2023-01-11T09:11:55.733Z,99365.16
2023-01-11T09:16:53.128Z,99360.03
2023-01-11T09:19:20.609Z,99364.94
2023-01-11T09:21:48.174Z,99361.69
2023-01-11T09:24:16.258Z,99370.34
2023-01-11T09:26:43.417Z,99367.13
2023-01-11T09:29:11.407Z,99359.94
2023-01-11T09:31:38.652Z,99367.09
2023-01-11T09:34:06.076Z,99372.84
2023-01-11T09:36:33.208Z,99369.63
2023-01-11T09:39:00.218Z,99374.06
2023-01-11T09:41:42.521Z,99366.41
2023-01-11T09:44:15.356Z,99370.81
2023-01-11T09:46:47.835Z,99368.78
2023-01-11T09:49:34.161Z,99364.38
2023-01-11T09:52:22.574Z,99371.16
2023-01-11T09:54:49.832Z,99373.19
2023-01-11T09:57:35.382Z,99360.94
2023-01-11T10:00:25.533Z,99361.28
2023-01-11T10:03:23.711Z,99373.03
2023-01-11T10:06:16.101Z,99363.16
2023-01-11T10:18:22.523Z,99357.84
2023-01-11T10:19:19.632Z,99359.91
2023-01-11T10:21:45.925Z,99364.97
2023-01-11T10:24:21.996Z,99363.94
2023-01-11T10:26:51.319Z,99352.53
2023-01-11T10:29:31.879Z,99354.41
2023-01-11T10:32:01.516Z,99355.06
2023-01-11T10:34:34.352Z,99352.84
2023-01-11T10:37:07.898Z,99347.38
2023-01-11T10:39:53.670Z,99356.03
2023-01-11T10:42:27.927Z,99356.16
2023-01-11T10:45:00.600Z,99354.00
2023-01-11T10:47:46.184Z,99352.47
2023-01-11T10:50:58.373Z,99352.31
2023-01-11T10:53:32.291Z,99348.91
2023-01-11T10:57:01.975Z,99364.31
2023-01-11T10:59:36.750Z,99354.75
2023-01-11T11:02:24.286Z,99361.19
2023-01-11T11:05:30.287Z,99353.31
2023-01-11T11:08:06.813Z,99340.84
2023-01-11T11:10:58.577Z,99343.22
2023-01-11T11:13:47.452Z,99354.41
2023-01-11T11:16:58.000Z,99347.38
2023-01-11T11:19:29.255Z,99351.84
2023-01-11T11:21:56.403Z,99345.47
2023-01-11T11:24:40.868Z,99346.44
2023-01-11T11:27:16.810Z,99355.19
2023-01-11T11:29:50.137Z,99355.47
2023-01-11T11:32:25.518Z,99357.53
2023-01-11T11:34:53.366Z,99360.25
2023-01-11T11:37:36.685Z,99351.06
2023-01-11T11:40:04.334Z,99354.38
2023-01-11T11:42:31.741Z,99351.66
2023-01-11T11:45:11.028Z,99346.19
2023-01-11T11:47:38.520Z,99340.94
2023-01-11T11:50:42.092Z,99327.41
2023-01-11T11:53:07.800Z,99338.66
2023-01-11T11:55:35.465Z,99340.28
2023-01-11T11:58:07.899Z,99339.25
2023-01-11T12:00:42.704Z,99333.72
2023-01-11T12:03:21.221Z,99341.31
2023-01-11T12:05:54.455Z,99328.66
2023-01-11T12:08:23.670Z,99333.91
2023-01-11T12:11:03.929Z,99326.88
2023-01-11T12:13:36.627Z,99335.16
2023-01-11T12:16:07.297Z,99334.38
2023-01-11T12:18:37.360Z,99317.94
2023-01-11T12:21:20.624Z,99315.78
2023-01-11T12:23:48.909Z,99319.06
2023-01-11T12:26:29.197Z,99320.28
2023-01-11T12:29:16.159Z,99308.41
2023-01-11T12:31:58.200Z,99315.34
2023-01-11T12:34:36.410Z,99318.41
2023-01-11T12:37:12.116Z,99335.31
2023-01-11T12:40:10.429Z,99335.38
2023-01-11T12:42:49.585Z,99335.47
2023-01-11T12:45:37.286Z,99331.59
2023-01-11T12:48:20.548Z,99332.72
2023-01-11T12:50:47.503Z,99336.25
2023-01-11T12:53:29.803Z,99326.94
2023-01-11T12:56:06.052Z,99323.34
2023-01-11T12:58:44.319Z,99324.03
2023-01-11T13:01:30.241Z,99336.81
2023-01-11T13:04:12.619Z,99330.63
2023-01-11T13:07:01.566Z,99337.19
2023-01-11T13:09:40.769Z,99347.56
2023-01-11T13:12:28.240Z,99350.84
2023-01-11T13:15:16.949Z,99354.78
2023-01-11T13:18:02.257Z,99366.09
2023-01-11T13:21:01.330Z,99358.75
2023-01-11T13:23:40.963Z,99363.56
2023-01-11T13:26:27.906Z,99372.66
2023-01-11T13:29:01.079Z,99386.94
2023-01-11T13:31:30.038Z,99385.81
2023-01-11T13:34:04.568Z,99381.03
2023-01-11T13:36:40.666Z,99372.97
2023-01-11T13:39:21.908Z,99371.41
2023-01-11T13:41:56.256Z,99362.16
2023-01-11T13:44:41.915Z,99356.97
2023-01-11T13:47:21.107Z,99361.00
2023-01-11T13:50:20.572Z,99363.72
2023-01-11T13:53:01.893Z,99347.47
2023-01-11T13:55:39.347Z,99354.16
2023-01-11T13:58:16.687Z,99371.06
2023-01-11T14:00:43.767Z,99377.19
2023-01-11T14:03:13.766Z,99373.50
2023-01-11T14:05:54.757Z,99371.34
2023-01-11T14:09:06.577Z,99387.31
2023-01-11T14:11:47.792Z,99399.66
2023-01-11T14:14:27.092Z,99397.41
2023-01-11T14:16:56.841Z,99389.50
2023-01-11T14:19:43.591Z,99402.56
2023-01-11T14:22:27.679Z,99415.19
2023-01-11T14:25:03.667Z,99429.81
2023-01-11T14:28:15.563Z,99420.69
2023-01-11T14:30:59.228Z,99438.75
2023-01-11T14:33:56.022Z,99430.56
2023-01-11T14:36:32.110Z,99437.78
2023-01-11T14:39:15.633Z,99437.25
2023-01-11T14:41:57.955Z,99440.88
2023-01-11T14:45:06.357Z,99449.13
2023-01-11T14:47:36.286Z,99456.88
2023-01-11T14:50:15.903Z,99457.38
2023-01-11T14:52:45.490Z,99460.94
2023-01-11T14:55:36.151Z,99470.44
2023-01-11T14:58:16.606Z,99465.00
2023-01-11T15:00:43.662Z,99483.41
2023-01-11T15:03:10.708Z,99485.00
2023-01-11T15:05:45.003Z,99488.81
2023-01-11T15:08:15.034Z,99495.16
2023-01-11T15:10:51.165Z,99498.78
2023-01-11T15:13:22.224Z,99496.59
2023-01-11T15:15:50.190Z,99508.81
2023-01-11T15:18:20.881Z,99497.28
2023-01-11T15:20:57.768Z,99513.78
2023-01-11T15:23:25.533Z,99525.41
2023-01-11T15:26:15.307Z,99534.06
2023-01-11T15:28:51.634Z,99539.50
2023-01-11T15:31:49.318Z,99539.34
2023-01-11T15:34:28.282Z,99551.25
2023-01-11T15:37:01.466Z,99543.75
2023-01-11T15:39:42.829Z,99539.69
2023-01-11T15:42:15.859Z,99549.41
2023-01-11T15:44:48.942Z,99566.78
2023-01-11T15:47:53.111Z,99563.94
2023-01-11T15:50:52.579Z,99574.22
2023-01-11T15:53:49.300Z,99580.19
2023-01-11T15:56:36.787Z,99578.66
2023-01-11T15:59:30.112Z,99576.28
2023-01-11T16:02:15.576Z,99583.41
2023-01-11T16:04:51.481Z,99587.72
2023-01-11T16:07:28.052Z,99595.00
2023-01-11T16:10:15.018Z,99588.03
2023-01-11T16:12:52.455Z,99592.63
2023-01-11T16:15:50.554Z,99604.88
2023-01-11T16:18:22.633Z,99620.88
2023-01-11T16:21:03.504Z,99616.47
2023-01-11T16:23:31.834Z,99621.38
2023-01-11T16:25:59.935Z,99613.75
2023-01-11T16:28:28.082Z,99616.47
2023-01-11T16:31:01.140Z,99622.22
2023-01-11T16:33:31.016Z,99627.00
2023-01-11T16:36:21.642Z,99631.91
2023-01-11T16:39:07.187Z,99635.66
2023-01-11T16:41:55.270Z,99629.03
2023-01-11T16:44:38.335Z,99638.91
2023-01-11T16:47:19.300Z,99633.97
2023-01-11T16:49:49.203Z,99645.69
2023-01-11T16:52:28.327Z,99646.00
2023-01-11T16:54:58.019Z,99649.38
2023-01-11T16:57:48.611Z,99655.81
2023-01-11T17:00:29.759Z,99659.44
2023-01-11T17:03:03.326Z,99652.63
2023-01-11T17:05:30.403Z,99659.53
2023-01-11T17:07:57.451Z,99655.22
2023-01-11T17:10:29.676Z,99661.25
2023-01-11T17:13:21.066Z,99657.94
2023-01-11T17:15:58.458Z,99660.78
2023-01-11T17:22:53.880Z,99676.00
2023-01-11T17:25:37.366Z,99674.19
2023-01-11T17:28:18.249Z,99683.63
2023-01-11T17:30:47.766Z,99702.38
2023-01-11T17:33:31.730Z,99712.78
2023-01-11T17:36:00.201Z,99712.69
2023-01-11T17:38:28.021Z,99713.75
2023-01-11T17:40:56.072Z,99724.19
2023-01-11T17:43:28.578Z,99732.66
2023-01-11T17:45:57.662Z,99728.69
2023-01-11T17:48:27.152Z,99733.59
2023-01-11T17:51:02.757Z,99725.91
2023-01-11T17:53:32.855Z,99725.81
2023-01-11T17:56:07.449Z,99730.97
2023-01-11T17:58:38.565Z,99738.97
2023-01-11T18:01:05.582Z,99735.72
2023-01-11T18:03:55.768Z,99749.16
2023-01-11T18:06:34.919Z,99756.94
2023-01-11T18:09:08.026Z,99760.91
2023-01-11T18:11:38.886Z,99764.91
2023-01-11T18:14:17.093Z,99772.25
2023-01-11T18:16:59.299Z,99768.13
2023-01-11T18:19:37.897Z,99761.41
2023-01-11T18:22:24.823Z,99757.69
2023-01-11T18:24:55.781Z,99781.75
2023-01-11T18:27:34.173Z,99766.53
2023-01-11T18:30:05.010Z,99773.25
2023-01-11T18:32:42.591Z,99781.09
2023-01-11T18:35:17.652Z,99775.28
2023-01-11T18:37:45.985Z,99767.88
2023-01-11T18:40:17.485Z,99768.91
2023-01-11T18:42:50.762Z,99776.50
2023-01-11T18:45:18.088Z,99779.78
2023-01-11T18:47:45.159Z,99781.09
2023-01-11T18:50:16.960Z,99788.22
2023-01-11T18:52:45.160Z,99795.19
2023-01-11T18:55:13.955Z,99784.81
2023-01-11T18:57:41.079Z,99784.50
2023-01-11T19:00:09.167Z,99790.91
2023-01-11T19:02:44.117Z,99799.31
2023-01-11T19:05:13.887Z,99791.31
2023-01-11T19:07:41.113Z,99798.28
2023-01-11T19:10:08.684Z,99791.19
2023-01-11T19:12:35.790Z,99800.31
2023-01-11T19:15:02.811Z,99801.00
2023-01-11T19:17:31.743Z,99804.28
2023-01-11T19:19:58.961Z,99798.28
2023-01-11T19:22:26.912Z,99795.16
2023-01-11T19:24:54.534Z,99788.34
2023-01-11T19:27:22.487Z,99790.03
2023-01-11T19:29:50.592Z,99810.25
2023-01-11T19:32:17.648Z,99803.88
2023-01-11T19:34:44.677Z,99810.25
2023-01-11T19:37:11.777Z,99812.28
2023-01-11T19:39:38.837Z,99819.09
2023-01-11T19:42:05.921Z,99812.00
2023-01-11T19:44:34.675Z,99811.13
2023-01-11T19:47:11.954Z,99804.84
2023-01-11T19:49:40.946Z,99809.00
2023-01-11T19:52:09.619Z,99799.63
2023-01-11T19:54:43.169Z,99791.38
2023-01-11T19:57:15.580Z,99799.34
2023-01-11T19:59:42.661Z,99799.91
2023-01-11T20:02:12.199Z,99797.91
2023-01-11T20:04:40.464Z,99812.28
2023-01-11T20:07:09.642Z,99807.16
2023-01-11T20:09:37.014Z,99802.47
2023-01-11T20:12:12.182Z,99810.41
2023-01-11T20:14:39.320Z,99816.28
2023-01-11T20:17:06.663Z,99812.72
2023-01-11T20:19:33.697Z,99813.00
2023-01-11T20:22:00.722Z,99811.97
2023-01-11T20:24:30.227Z,99815.56
2023-01-11T20:26:59.215Z,99818.69
2023-01-11T20:29:26.771Z,99810.88
2023-01-11T20:31:53.834Z,99813.56
2023-01-11T20:34:21.091Z,99814.97
2023-01-11T20:36:48.385Z,99820.09
2023-01-11T20:39:15.508Z,99811.09
2023-01-11T20:41:42.665Z,99808.69
2023-01-11T20:44:10.390Z,99808.69
2023-01-11T20:46:37.809Z,99823.44
2023-01-11T20:49:06.285Z,99819.44
2023-01-11T20:51:33.923Z,99815.44
2023-01-11T20:54:01.248Z,99813.75
2023-01-11T20:56:28.302Z,99818.72
2023-01-11T20:58:55.329Z,99820.97
2023-01-11T21:01:22.475Z,99819.41
2023-01-11T21:03:49.583Z,99820.50
2023-01-11T21:06:16.633Z,99812.56
2023-01-11T21:08:43.726Z,99808.28
2023-01-11T21:11:15.941Z,99813.84
2023-01-11T21:13:44.048Z,99814.84
2023-01-11T21:16:15.666Z,99811.13
2023-01-11T21:18:44.058Z,99814.72
2023-01-11T21:21:21.309Z,99808.44
2023-01-11T21:23:48.771Z,99813.13
2023-01-11T21:26:17.970Z,99806.47
2023-01-11T21:28:49.417Z,99808.19
2023-01-11T21:31:16.582Z,99799.38
2023-01-11T21:33:43.684Z,99792.97
2023-01-11T21:36:13.002Z,99786.84
2023-01-11T21:38:41.235Z,99780.75
2023-01-11T21:41:20.175Z,99786.72
2023-01-11T21:43:47.214Z,99789.41
2023-01-11T21:46:14.403Z,99776.34
2023-01-11T21:48:41.542Z,99788.56
2023-01-11T21:51:09.087Z,99782.06
2023-01-11T21:53:36.680Z,99791.88
2023-01-11T21:56:08.472Z,99775.69
2023-01-11T21:58:35.438Z,99782.06
2023-01-11T22:01:13.009Z,99789.19
2023-01-11T22:03:40.339Z,99782.81
2023-01-11T22:06:09.133Z,99781.09
2023-01-11T22:08:37.599Z,99783.50
2023-01-11T22:11:06.256Z,99780.66
2023-01-11T22:13:35.149Z,99775.69
2023-01-11T22:16:04.557Z,99772.00
2023-01-11T22:18:32.068Z,99776.66
2023-01-11T22:21:11.800Z,99777.53
2023-01-11T22:23:40.125Z,99778.97
2023-01-11T22:26:16.192Z,99780.25
2023-01-11T22:28:44.501Z,99785.66
2023-01-11T22:31:11.609Z,99780.13
2023-01-11T22:33:38.769Z,99786.78
2023-01-11T22:36:06.381Z,99781.09
2023-01-11T22:38:33.406Z,99783.69
2023-01-11T22:41:00.427Z,99776.28
2023-01-11T22:43:28.981Z,99779.84
2023-01-11T22:46:00.682Z,99780.56
2023-01-11T22:48:28.294Z,99779.84
2023-01-11T22:50:55.237Z,99782.41
2023-01-11T22:53:22.251Z,99784.53
2023-01-11T22:55:49.404Z,99783.84
2023-01-11T22:58:16.469Z,99774.59
2023-01-11T23:00:43.608Z,99767.63
2023-01-11T23:03:10.803Z,99761.50
2023-01-11T23:05:44.276Z,99774.00
2023-01-11T23:08:11.367Z,99785.69
2023-01-11T23:10:38.441Z,99788.25
2023-01-11T23:13:05.898Z,99784.53
2023-01-11T23:15:38.149Z,99780.97
2023-01-11T23:18:05.675Z,99781.69
2023-01-11T23:20:35.896Z,99780.41
2023-01-11T23:23:03.088Z,99779.97
2023-01-11T23:25:30.134Z,99779.81
2023-01-11T23:27:57.175Z,99779.41
2023-01-11T23:30:24.438Z,99780.97
2023-01-11T23:32:51.481Z,99782.25
2023-01-11T23:35:18.539Z,99777.69
2023-01-11T23:37:45.609Z,99771.28
2023-01-11T23:40:12.792Z,99769.28
2023-01-11T23:42:39.835Z,99766.44
2023-01-11T23:45:07.494Z,99761.88
2023-01-11T23:47:34.660Z,99769.88
2023-01-11T23:50:01.714Z,99770.41
2023-01-11T23:52:31.306Z,99777.25
2023-01-11T23:54:59.047Z,99769.28
2023-01-11T23:57:26.372Z,99775.09
2023-01-11T23:59:53.430Z,99756.00
